sensor_id;sensor_type;location;lat;lon;timestamp;temperature;humidity
15184;DHT22;7693;49.266;7.104;2022-11-02T05:38:41;11.00;99.90
15184;DHT22;7693;49.266;7.104;2022-11-02T05:41:08;11.00;99.90
15184;DHT22;7693;49.266;7.104;2022-11-02T05:43:33;11.00;99.90
15184;DHT22;7693;49.266;7.104;2022-11-02T05:46:00;11.00;99.90
15184;DHT22;7693;49.266;7.104;2022-11-02T05:48:29;11.00;99.90
15184;DHT22;7693;49.266;7.104;2022-11-02T05:50:56;11.00;99.90
15184;DHT22;7693;49.266;7.104;2022-11-02T05:53:23;11.00;99.90
15184;DHT22;7693;49.266;7.104;2022-11-02T05:55:49;11.00;99.90
15184;DHT22;7693;49.266;7.104;2022-11-02T05:58:14;11.00;99.90
15184;DHT22;7693;49.266;7.104;2022-11-02T06:00:40;11.00;99.90
15184;DHT22;7693;49.266;7.104;2022-11-02T06:03:06;11.00;99.90
15184;DHT22;7693;49.266;7.104;2022-11-02T06:05:31;11.00;99.90
15184;DHT22;7693;49.266;7.104;2022-11-02T06:08:00;11.00;99.90
15184;DHT22;7693;49.266;7.104;2022-11-02T06:10:27;10.90;99.90
15184;DHT22;7693;49.266;7.104;2022-11-02T06:12:57;10.90;99.90
15184;DHT22;7693;49.266;7.104;2022-11-02T06:15:23;10.90;99.90
15184;DHT22;7693;49.266;7.104;2022-11-02T06:17:49;10.90;99.90
15184;DHT22;7693;49.266;7.104;2022-11-02T06:20:16;10.90;99.90
15184;DHT22;7693;49.266;7.104;2022-11-02T06:22:43;10.90;99.90
15184;DHT22;7693;49.266;7.104;2022-11-02T06:25:09;10.90;99.90
15184;DHT22;7693;49.266;7.104;2022-11-02T06:27:35;11.00;99.90
15184;DHT22;7693;49.266;7.104;2022-11-02T06:30:01;11.00;99.90
15184;DHT22;7693;49.266;7.104;2022-11-02T06:32:26;11.00;99.90
15184;DHT22;7693;49.266;7.104;2022-11-02T06:34:52;11.10;99.90
15184;DHT22;7693;49.266;7.104;2022-11-02T06:37:18;11.10;99.90
15184;DHT22;7693;49.266;7.104;2022-11-02T06:39:43;11.20;99.90
15184;DHT22;7693;49.266;7.104;2022-11-02T06:42:09;11.20;99.90
15184;DHT22;7693;49.266;7.104;2022-11-02T06:44:34;11.30;99.90
15184;DHT22;7693;49.266;7.104;2022-11-02T06:47:00;11.30;99.90
15184;DHT22;7693;49.266;7.104;2022-11-02T06:49:26;11.30;99.90
15184;DHT22;7693;49.266;7.104;2022-11-02T06:51:51;11.30;99.90
15184;DHT22;7693;49.266;7.104;2022-11-02T06:54:17;11.30;99.90
15184;DHT22;7693;49.266;7.104;2022-11-02T06:56:43;11.40;99.90
15184;DHT22;7693;49.266;7.104;2022-11-02T06:59:08;11.40;99.90
15184;DHT22;7693;49.266;7.104;2022-11-02T07:01:34;11.40;99.90
15184;DHT22;7693;49.266;7.104;2022-11-02T07:04:01;11.50;99.90
15184;DHT22;7693;49.266;7.104;2022-11-02T07:06:27;11.50;99.90
15184;DHT22;7693;49.266;7.104;2022-11-02T07:08:53;11.50;99.90
15184;DHT22;7693;49.266;7.104;2022-11-02T07:11:19;11.50;99.90
15184;DHT22;7693;49.266;7.104;2022-11-02T07:13:44;11.40;99.90
15184;DHT22;7693;49.266;7.104;2022-11-02T07:16:10;11.40;99.90
15184;DHT22;7693;49.266;7.104;2022-11-02T07:18:36;11.40;99.90
15184;DHT22;7693;49.266;7.104;2022-11-02T07:21:02;11.40;99.90
15184;DHT22;7693;49.266;7.104;2022-11-02T07:23:27;11.50;99.90
15184;DHT22;7693;49.266;7.104;2022-11-02T07:25:53;11.50;99.90
15184;DHT22;7693;49.266;7.104;2022-11-02T07:28:19;11.50;99.90
15184;DHT22;7693;49.266;7.104;2022-11-02T07:30:45;11.60;99.90
15184;DHT22;7693;49.266;7.104;2022-11-02T07:33:11;11.50;99.90
15184;DHT22;7693;49.266;7.104;2022-11-02T07:35:37;11.60;99.90
15184;DHT22;7693;49.266;7.104;2022-11-02T07:38:05;11.60;99.90
15184;DHT22;7693;49.266;7.104;2022-11-02T07:40:32;11.60;99.90
15184;DHT22;7693;49.266;7.104;2022-11-02T07:42:58;11.70;99.90
15184;DHT22;7693;49.266;7.104;2022-11-02T07:45:24;11.80;99.90
15184;DHT22;7693;49.266;7.104;2022-11-02T07:47:50;11.80;99.90
15184;DHT22;7693;49.266;7.104;2022-11-02T07:50:20;11.80;99.90
15184;DHT22;7693;49.266;7.104;2022-11-02T07:52:48;11.80;99.90
15184;DHT22;7693;49.266;7.104;2022-11-02T07:55:17;11.80;99.90
15184;DHT22;7693;49.266;7.104;2022-11-02T07:57:43;11.80;99.90
15184;DHT22;7693;49.266;7.104;2022-11-02T08:00:16;11.80;99.90
15184;DHT22;7693;49.266;7.104;2022-11-02T08:02:42;11.80;99.90
15184;DHT22;7693;49.266;7.104;2022-11-02T08:05:08;11.90;99.90
15184;DHT22;7693;49.266;7.104;2022-11-02T08:07:33;11.90;99.90
15184;DHT22;7693;49.266;7.104;2022-11-02T08:09:59;11.80;99.90
15184;DHT22;7693;49.266;7.104;2022-11-02T08:12:25;11.90;99.90
15184;DHT22;7693;49.266;7.104;2022-11-02T08:14:50;11.90;99.90
15184;DHT22;7693;49.266;7.104;2022-11-02T08:17:16;11.90;99.90
15184;DHT22;7693;49.266;7.104;2022-11-02T08:19:41;12.00;99.90
15184;DHT22;7693;49.266;7.104;2022-11-02T08:22:07;12.00;99.90
15184;DHT22;7693;49.266;7.104;2022-11-02T08:24:33;12.00;99.90
15184;DHT22;7693;49.266;7.104;2022-11-02T08:26:58;11.90;99.90
15184;DHT22;7693;49.266;7.104;2022-11-02T08:29:24;12.00;99.90
15184;DHT22;7693;49.266;7.104;2022-11-02T08:31:49;12.10;99.90
15184;DHT22;7693;49.266;7.104;2022-11-02T08:34:15;12.10;99.90
15184;DHT22;7693;49.266;7.104;2022-11-02T08:36:40;12.20;99.90
15184;DHT22;7693;49.266;7.104;2022-11-02T08:39:06;12.20;99.90
15184;DHT22;7693;49.266;7.104;2022-11-02T08:41:31;12.20;99.90
15184;DHT22;7693;49.266;7.104;2022-11-02T08:43:57;12.20;99.90
15184;DHT22;7693;49.266;7.104;2022-11-02T08:46:23;12.20;99.90
15184;DHT22;7693;49.266;7.104;2022-11-02T08:48:49;12.30;99.90
15184;DHT22;7693;49.266;7.104;2022-11-02T08:51:15;12.30;99.90
15184;DHT22;7693;49.266;7.104;2022-11-02T08:53:40;12.30;99.90
15184;DHT22;7693;49.266;7.104;2022-11-02T08:56:06;12.40;99.90
15184;DHT22;7693;49.266;7.104;2022-11-02T08:58:32;12.40;99.90
15184;DHT22;7693;49.266;7.104;2022-11-02T09:00:58;12.50;99.90
15184;DHT22;7693;49.266;7.104;2022-11-02T09:03:23;12.50;99.90
15184;DHT22;7693;49.266;7.104;2022-11-02T09:05:49;12.50;99.90
15184;DHT22;7693;49.266;7.104;2022-11-02T09:08:20;12.60;99.90
15184;DHT22;7693;49.266;7.104;2022-11-02T09:10:49;12.70;99.90
15184;DHT22;7693;49.266;7.104;2022-11-02T09:13:16;12.70;99.90
15184;DHT22;7693;49.266;7.104;2022-11-02T09:15:50;12.70;99.90
15184;DHT22;7693;49.266;7.104;2022-11-02T09:18:16;12.70;99.90
15184;DHT22;7693;49.266;7.104;2022-11-02T09:20:41;12.80;99.90
15184;DHT22;7693;49.266;7.104;2022-11-02T09:23:07;12.80;99.90
15184;DHT22;7693;49.266;7.104;2022-11-02T09:25:32;13.00;99.90
15184;DHT22;7693;49.266;7.104;2022-11-02T09:27:58;13.00;99.90
15184;DHT22;7693;49.266;7.104;2022-11-02T09:30:25;13.10;99.90
15184;DHT22;7693;49.266;7.104;2022-11-02T09:35:20;13.20;99.90
15184;DHT22;7693;49.266;7.104;2022-11-02T09:37:46;13.20;99.90
15184;DHT22;7693;49.266;7.104;2022-11-02T09:40:12;13.20;99.90
15184;DHT22;7693;49.266;7.104;2022-11-02T09:42:52;13.30;99.90
15184;DHT22;7693;49.266;7.104;2022-11-02T09:45:20;13.50;99.90
15184;DHT22;7693;49.266;7.104;2022-11-02T09:50:22;13.60;99.90
15184;DHT22;7693;49.266;7.104;2022-11-02T09:52:58;13.70;99.90
15184;DHT22;7693;49.266;7.104;2022-11-02T09:55:34;13.80;99.90
15184;DHT22;7693;49.266;7.104;2022-11-02T09:58:05;14.00;99.90
15184;DHT22;7693;49.266;7.104;2022-11-02T10:00:34;14.10;99.90
15184;DHT22;7693;49.266;7.104;2022-11-02T10:06:38;14.30;99.90
15184;DHT22;7693;49.266;7.104;2022-11-02T10:08:50;14.30;99.90
15184;DHT22;7693;49.266;7.104;2022-11-02T10:14:34;14.30;99.90
15184;DHT22;7693;49.266;7.104;2022-11-02T10:17:18;14.30;99.90
15184;DHT22;7693;49.266;7.104;2022-11-02T10:19:51;14.40;99.90
15184;DHT22;7693;49.266;7.104;2022-11-02T10:22:18;14.40;99.90
15184;DHT22;7693;49.266;7.104;2022-11-02T10:24:47;14.40;99.90
15184;DHT22;7693;49.266;7.104;2022-11-02T10:27:24;14.50;99.90
15184;DHT22;7693;49.266;7.104;2022-11-02T10:30:13;14.40;99.90
15184;DHT22;7693;49.266;7.104;2022-11-02T10:32:40;14.40;99.90
15184;DHT22;7693;49.266;7.104;2022-11-02T10:50:07;14.40;99.90
15184;DHT22;7693;49.266;7.104;2022-11-02T10:52:40;14.30;99.90
15184;DHT22;7693;49.266;7.104;2022-11-02T10:55:22;14.30;99.90
15184;DHT22;7693;49.266;7.104;2022-11-02T10:57:53;14.40;99.90
15184;DHT22;7693;49.266;7.104;2022-11-02T11:00:32;14.50;99.90
15184;DHT22;7693;49.266;7.104;2022-11-02T11:03:17;14.60;99.90
15184;DHT22;7693;49.266;7.104;2022-11-02T11:08:42;14.70;99.90
15184;DHT22;7693;49.266;7.104;2022-11-02T11:11:27;14.70;99.90
15184;DHT22;7693;49.266;7.104;2022-11-02T11:13:54;14.70;99.90
15184;DHT22;7693;49.266;7.104;2022-11-02T11:16:32;14.60;99.90
15184;DHT22;7693;49.266;7.104;2022-11-02T11:18:59;14.50;99.90
15184;DHT22;7693;49.266;7.104;2022-11-02T11:21:39;14.60;99.90
15184;DHT22;7693;49.266;7.104;2022-11-02T15:01:23;15.00;99.90
15184;DHT22;7693;49.266;7.104;2022-11-02T15:03:49;14.90;99.90
15184;DHT22;7693;49.266;7.104;2022-11-02T15:06:26;14.80;99.90
15184;DHT22;7693;49.266;7.104;2022-11-02T15:11:48;14.70;99.90
15184;DHT22;7693;49.266;7.104;2022-11-02T15:27:35;14.40;99.90
15184;DHT22;7693;49.266;7.104;2022-11-02T15:30:03;14.40;99.90
15184;DHT22;7693;49.266;7.104;2022-11-02T15:32:33;14.30;99.90
15184;DHT22;7693;49.266;7.104;2022-11-02T15:35:03;14.30;99.90
15184;DHT22;7693;49.266;7.104;2022-11-02T15:37:30;14.30;99.90
15184;DHT22;7693;49.266;7.104;2022-11-02T15:39:59;14.20;99.90
15184;DHT22;7693;49.266;7.104;2022-11-02T15:42:44;14.10;99.90
15184;DHT22;7693;49.266;7.104;2022-11-02T15:48:10;14.10;99.90
15184;DHT22;7693;49.266;7.104;2022-11-02T15:53:36;13.90;99.90
15184;DHT22;7693;49.266;7.104;2022-11-02T16:02:31;13.60;99.90
15184;DHT22;7693;49.266;7.104;2022-11-02T16:04:59;13.50;99.90
15184;DHT22;7693;49.266;7.104;2022-11-02T19:24:42;9.20;99.90
15184;DHT22;7693;49.266;7.104;2022-11-02T19:27:22;9.20;99.90
15184;DHT22;7693;49.266;7.104;2022-11-02T19:29:48;9.20;99.90
15184;DHT22;7693;49.266;7.104;2022-11-02T19:32:14;9.30;99.90
15184;DHT22;7693;49.266;7.104;2022-11-02T19:34:40;9.20;99.90
15184;DHT22;7693;49.266;7.104;2022-11-02T19:37:07;9.20;99.90
15184;DHT22;7693;49.266;7.104;2022-11-02T19:39:33;9.30;99.90
15184;DHT22;7693;49.266;7.104;2022-11-02T19:41:59;9.30;99.90
15184;DHT22;7693;49.266;7.104;2022-11-02T19:44:24;9.30;99.90
15184;DHT22;7693;49.266;7.104;2022-11-02T19:46:50;9.20;99.90
15184;DHT22;7693;49.266;7.104;2022-11-02T19:49:16;9.20;99.90
15184;DHT22;7693;49.266;7.104;2022-11-02T19:51:41;9.20;99.90
15184;DHT22;7693;49.266;7.104;2022-11-02T19:54:07;9.30;99.90
15184;DHT22;7693;49.266;7.104;2022-11-02T19:56:34;9.20;99.90
15184;DHT22;7693;49.266;7.104;2022-11-02T19:59:02;9.20;99.90
15184;DHT22;7693;49.266;7.104;2022-11-02T20:01:33;9.20;99.90
15184;DHT22;7693;49.266;7.104;2022-11-02T20:04:00;9.20;99.90
15184;DHT22;7693;49.266;7.104;2022-11-02T20:08:54;9.20;99.90
15184;DHT22;7693;49.266;7.104;2022-11-02T20:11:22;9.20;99.90
15184;DHT22;7693;49.266;7.104;2022-11-02T20:13:49;9.10;99.90
15184;DHT22;7693;49.266;7.104;2022-11-02T20:16:17;9.10;99.90
15184;DHT22;7693;49.266;7.104;2022-11-02T20:18:44;9.10;99.90
15184;DHT22;7693;49.266;7.104;2022-11-02T20:21:29;9.10;99.90
15184;DHT22;7693;49.266;7.104;2022-11-02T20:23:56;9.10;99.90
15184;DHT22;7693;49.266;7.104;2022-11-02T20:26:28;9.00;99.90
15184;DHT22;7693;49.266;7.104;2022-11-02T20:28:54;9.00;99.90
15184;DHT22;7693;49.266;7.104;2022-11-02T20:31:31;9.00;99.90
15184;DHT22;7693;49.266;7.104;2022-11-02T20:34:00;9.10;99.90
15184;DHT22;7693;49.266;7.104;2022-11-02T20:36:26;9.00;99.90
15184;DHT22;7693;49.266;7.104;2022-11-02T20:38:53;9.00;99.90
15184;DHT22;7693;49.266;7.104;2022-11-02T20:41:19;9.00;99.90
15184;DHT22;7693;49.266;7.104;2022-11-02T20:43:47;9.00;99.90
15184;DHT22;7693;49.266;7.104;2022-11-02T20:46:14;9.00;99.90
15184;DHT22;7693;49.266;7.104;2022-11-02T20:48:42;9.00;99.90
15184;DHT22;7693;49.266;7.104;2022-11-02T20:51:09;9.00;99.90
15184;DHT22;7693;49.266;7.104;2022-11-02T20:53:34;9.00;99.90
15184;DHT22;7693;49.266;7.104;2022-11-02T20:56:00;9.00;99.90
15184;DHT22;7693;49.266;7.104;2022-11-02T20:58:27;9.00;99.90
15184;DHT22;7693;49.266;7.104;2022-11-02T21:00:53;8.90;99.90
15184;DHT22;7693;49.266;7.104;2022-11-02T21:03:18;9.00;99.90
15184;DHT22;7693;49.266;7.104;2022-11-02T21:05:44;8.90;99.90
15184;DHT22;7693;49.266;7.104;2022-11-02T21:08:11;9.00;99.90
15184;DHT22;7693;49.266;7.104;2022-11-02T21:10:37;9.00;99.90
15184;DHT22;7693;49.266;7.104;2022-11-02T21:13:03;9.00;99.90
15184;DHT22;7693;49.266;7.104;2022-11-02T21:15:48;9.00;99.90
15184;DHT22;7693;49.266;7.104;2022-11-02T21:18:14;9.00;99.90
15184;DHT22;7693;49.266;7.104;2022-11-02T21:20:40;9.00;99.90
15184;DHT22;7693;49.266;7.104;2022-11-02T21:23:06;8.90;99.90
15184;DHT22;7693;49.266;7.104;2022-11-02T21:25:32;8.90;99.90
15184;DHT22;7693;49.266;7.104;2022-11-02T21:27:58;8.90;99.90
15184;DHT22;7693;49.266;7.104;2022-11-02T21:30:25;8.90;99.90
15184;DHT22;7693;49.266;7.104;2022-11-02T21:32:52;8.90;99.90
15184;DHT22;7693;49.266;7.104;2022-11-02T21:35:20;8.90;99.90
15184;DHT22;7693;49.266;7.104;2022-11-02T21:37:46;8.90;99.90
15184;DHT22;7693;49.266;7.104;2022-11-02T21:40:12;8.90;99.90
15184;DHT22;7693;49.266;7.104;2022-11-02T21:42:38;8.80;99.90
15184;DHT22;7693;49.266;7.104;2022-11-02T21:45:05;8.80;99.90
15184;DHT22;7693;49.266;7.104;2022-11-02T21:47:30;8.80;99.90
15184;DHT22;7693;49.266;7.104;2022-11-02T21:50:04;8.80;99.90
15184;DHT22;7693;49.266;7.104;2022-11-02T21:52:33;8.80;99.90
15184;DHT22;7693;49.266;7.104;2022-11-02T21:54:58;8.80;99.90
15184;DHT22;7693;49.266;7.104;2022-11-02T21:57:24;8.70;99.90
15184;DHT22;7693;49.266;7.104;2022-11-02T21:59:49;8.70;99.90
15184;DHT22;7693;49.266;7.104;2022-11-02T22:02:15;8.70;99.90
15184;DHT22;7693;49.266;7.104;2022-11-02T22:04:42;8.70;99.90
15184;DHT22;7693;49.266;7.104;2022-11-02T22:07:08;8.70;99.90
15184;DHT22;7693;49.266;7.104;2022-11-02T22:09:33;8.70;99.90
15184;DHT22;7693;49.266;7.104;2022-11-02T22:11:59;8.70;99.90
15184;DHT22;7693;49.266;7.104;2022-11-02T22:14:43;8.70;99.90
15184;DHT22;7693;49.266;7.104;2022-11-02T22:17:09;8.70;99.90
15184;DHT22;7693;49.266;7.104;2022-11-02T22:19:35;8.70;99.90
15184;DHT22;7693;49.266;7.104;2022-11-02T22:22:01;8.70;99.90
15184;DHT22;7693;49.266;7.104;2022-11-02T22:24:26;8.70;99.90
15184;DHT22;7693;49.266;7.104;2022-11-02T22:26:52;8.70;99.90
15184;DHT22;7693;49.266;7.104;2022-11-02T22:29:18;8.70;99.90
15184;DHT22;7693;49.266;7.104;2022-11-02T22:31:44;8.70;99.90
15184;DHT22;7693;49.266;7.104;2022-11-02T22:34:12;8.70;99.90
15184;DHT22;7693;49.266;7.104;2022-11-02T22:36:40;8.70;99.90
15184;DHT22;7693;49.266;7.104;2022-11-02T22:39:08;8.60;99.90
15184;DHT22;7693;49.266;7.104;2022-11-02T22:41:42;8.60;99.90
15184;DHT22;7693;49.266;7.104;2022-11-02T22:44:16;8.60;99.90
15184;DHT22;7693;49.266;7.104;2022-11-02T22:46:43;8.60;99.90
